createdAt,value
2023-04-22T00:00:56.105Z,94461.00
2023-04-22T00:01:56.130Z,94463.00
2023-04-22T00:02:56.234Z,94467.00
2023-04-22T00:03:56.430Z,94465.00
2023-04-22T00:04:56.308Z,94467.00
2023-04-22T00:05:56.167Z,94471.00
2023-04-22T00:06:56.157Z,94469.00
2023-04-22T00:07:56.251Z,94469.00
2023-04-22T00:08:56.171Z,94469.00
2023-04-22T00:09:56.145Z,94467.00
2023-04-22T00:10:56.162Z,94467.00
2023-04-22T00:11:56.189Z,94471.00
2023-04-22T00:12:56.183Z,94471.00
2023-04-22T00:13:56.189Z,94469.00
2023-04-22T00:14:56.178Z,94467.00
2023-04-22T00:15:56.258Z,94467.00
2023-04-22T00:16:56.233Z,94467.00
2023-04-22T00:17:56.343Z,94465.00
2023-04-22T00:18:56.245Z,94461.00
2023-04-22T00:19:56.237Z,94463.00
2023-04-22T00:20:56.225Z,94463.00
2023-04-22T00:21:56.308Z,94465.00
2023-04-22T00:22:56.265Z,94467.00
2023-04-22T00:23:56.319Z,94465.00
2023-04-22T00:24:56.303Z,94465.00
2023-04-22T00:25:56.376Z,94463.00
2023-04-22T00:26:56.301Z,94463.00
2023-04-22T00:27:56.322Z,94455.00
2023-04-22T00:28:56.351Z,94459.00
2023-04-22T00:29:56.368Z,94459.00
2023-04-22T00:30:56.378Z,94461.00
2023-04-22T00:31:56.414Z,94459.00
2023-04-22T00:32:56.494Z,94461.00
2023-04-22T00:33:56.385Z,94461.00
2023-04-22T00:34:56.390Z,94461.00
2023-04-22T00:35:56.392Z,94461.00
2023-04-22T00:36:56.490Z,94457.00
2023-04-22T00:37:56.455Z,94457.00
2023-04-22T00:38:56.467Z,94457.00
2023-04-22T00:39:56.471Z,94459.00
2023-04-22T00:40:56.530Z,94457.00
2023-04-22T00:41:56.605Z,94455.00
2023-04-22T00:42:56.571Z,94457.00
2023-04-22T00:43:56.599Z,94459.00
2023-04-22T00:44:56.549Z,94455.00
2023-04-22T00:45:56.582Z,94453.00
2023-04-22T00:46:56.650Z,94459.00
2023-04-22T00:47:56.695Z,94461.00
2023-04-22T00:48:56.646Z,94457.00
2023-04-22T00:49:56.686Z,94455.00
2023-04-22T00:50:56.699Z,94457.00
2023-04-22T00:51:56.743Z,94461.00
2023-04-22T00:52:56.713Z,94465.00
2023-04-22T00:53:56.758Z,94463.00
2023-04-22T00:54:56.756Z,94467.00
2023-04-22T00:55:56.802Z,94463.00
2023-04-22T00:56:56.824Z,94463.00
2023-04-22T00:57:56.847Z,94459.00
2023-04-22T00:58:56.874Z,94459.00
2023-04-22T00:59:56.902Z,94459.00
2023-04-22T01:00:56.941Z,94467.00
2023-04-22T01:01:56.929Z,94463.00
2023-04-22T01:02:57.014Z,94461.00
2023-04-22T01:03:57.107Z,94457.00
2023-04-22T01:04:57.168Z,94459.00
2023-04-22T01:05:57.015Z,94457.00
2023-04-22T01:06:57.011Z,94457.00
2023-04-22T01:07:57.073Z,94463.00
2023-04-22T01:08:57.196Z,94463.00
2023-04-22T01:09:57.106Z,94463.00
2023-04-22T01:10:57.096Z,94467.00
2023-04-22T01:11:57.160Z,94469.00
2023-04-22T01:12:57.216Z,94472.00
2023-04-22T01:13:57.187Z,94472.00
2023-04-22T01:14:57.237Z,94474.00
2023-04-22T01:15:57.243Z,94471.00
2023-04-22T01:16:57.234Z,94469.00
2023-04-22T01:17:57.296Z,94471.00
2023-04-22T01:18:57.271Z,94471.00
2023-04-22T01:19:57.339Z,94467.00
2023-04-22T01:20:57.323Z,94465.00
2023-04-22T01:21:57.387Z,94467.00
2023-04-22T01:22:57.392Z,94471.00
2023-04-22T01:23:57.406Z,94471.00
2023-04-22T01:24:57.420Z,94469.00
2023-04-22T01:25:57.477Z,94472.00
2023-04-22T01:26:57.486Z,94469.00
2023-04-22T01:27:57.534Z,94469.00
2023-04-22T01:28:57.549Z,94469.00
2023-04-22T01:29:57.606Z,94465.00
2023-04-22T01:30:57.618Z,94463.00
2023-04-22T01:31:57.726Z,94461.00
2023-04-22T01:32:57.706Z,94465.00
2023-04-22T01:33:57.702Z,94465.00
2023-04-22T01:34:57.680Z,94471.00
2023-04-22T01:35:57.750Z,94467.00
2023-04-22T01:36:57.803Z,94471.00
2023-04-22T01:37:57.854Z,94472.00
2023-04-22T01:38:57.856Z,94476.00
2023-04-22T01:39:57.877Z,94476.00
2023-04-22T01:40:57.931Z,94472.00
2023-04-22T01:41:57.925Z,94471.00
2023-04-22T01:42:58.030Z,94471.00
2023-04-22T01:43:58.030Z,94469.00
2023-04-22T01:44:58.022Z,94467.00
2023-04-22T01:45:59.013Z,94474.00
2023-04-22T01:46:58.060Z,94474.00
2023-04-22T01:47:58.156Z,94476.00
2023-04-22T01:48:58.193Z,94474.00
2023-04-22T01:49:58.195Z,94472.00
2023-04-22T01:50:58.233Z,94471.00
2023-04-22T01:51:58.242Z,94478.00
2023-04-22T01:52:58.305Z,94476.00
2023-04-22T01:53:58.285Z,94476.00
2023-04-22T01:54:58.359Z,94474.00
2023-04-22T01:55:58.476Z,94476.00
2023-04-22T01:56:58.441Z,94472.00
2023-04-22T01:57:58.473Z,94476.00
2023-04-22T01:58:58.502Z,94478.00
2023-04-22T01:59:58.547Z,94482.00
2023-04-22T02:00:58.626Z,94480.00
2023-04-22T02:01:58.619Z,94478.00
2023-04-22T02:02:58.708Z,94476.00
2023-04-22T02:03:58.636Z,94474.00
2023-04-22T02:04:58.747Z,94478.00
2023-04-22T02:05:58.716Z,94480.00
2023-04-22T02:06:58.898Z,94480.00
2023-04-22T02:07:58.819Z,94486.00
2023-04-22T02:08:58.843Z,94484.00
2023-04-22T02:09:58.840Z,94482.00
2023-04-22T02:10:58.953Z,94486.00
2023-04-22T02:11:58.961Z,94488.00
2023-04-22T02:12:58.991Z,94494.00
2023-04-22T02:13:59.033Z,94496.00
2023-04-22T02:14:59.082Z,94498.00
2023-04-22T02:15:59.118Z,94498.00
2023-04-22T02:16:59.088Z,94496.00
2023-04-22T02:17:59.172Z,94494.00
2023-04-22T02:18:59.301Z,94494.00
2023-04-22T02:19:59.321Z,94492.00
2023-04-22T02:20:59.281Z,94494.00
2023-04-22T02:21:59.271Z,94496.00
2023-04-22T02:22:59.906Z,94488.00
2023-04-22T02:23:59.308Z,94486.00
2023-04-22T02:24:59.402Z,94486.00
2023-04-22T02:25:59.433Z,94486.00
2023-04-22T02:26:59.478Z,94484.00
2023-04-22T02:27:59.483Z,94492.00
2023-04-22T02:28:59.514Z,94490.00
2023-04-22T02:29:59.543Z,94484.00
2023-04-22T02:30:59.594Z,94482.00
2023-04-22T02:31:59.698Z,94486.00
2023-04-22T02:32:59.681Z,94486.00
2023-04-22T02:33:59.690Z,94484.00
2023-04-22T02:34:59.715Z,94488.00
2023-04-22T02:35:59.738Z,94484.00
2023-04-22T02:36:59.736Z,94484.00
2023-04-22T02:37:59.796Z,94486.00
2023-04-22T02:38:59.797Z,94486.00
2023-04-22T02:39:59.904Z,94488.00
2023-04-22T02:40:59.860Z,94488.00
2023-04-22T02:41:59.907Z,94490.00
2023-04-22T02:42:59.988Z,94488.00
2023-04-22T02:44:00.026Z,94486.00
2023-04-22T02:45:00.087Z,94484.00
2023-04-22T02:46:00.068Z,94486.00
2023-04-22T02:47:00.283Z,94480.00
2023-04-22T02:48:00.216Z,94478.00
2023-04-22T02:49:00.149Z,94484.00
2023-04-22T02:50:00.198Z,94478.00
2023-04-22T02:51:00.250Z,94480.00
2023-04-22T02:52:00.310Z,94476.00
2023-04-22T02:53:00.362Z,94474.00
2023-04-22T02:54:00.377Z,94478.00
2023-04-22T02:55:00.436Z,94478.00
2023-04-22T02:56:00.509Z,94480.00
2023-04-22T02:57:00.540Z,94482.00
2023-04-22T02:58:00.589Z,94478.00
2023-04-22T02:59:00.557Z,94480.00
2023-04-22T03:00:00.620Z,94482.00
2023-04-22T03:01:00.723Z,94480.00
2023-04-22T03:02:00.804Z,94482.00
2023-04-22T03:03:01.003Z,94482.00
2023-04-22T03:04:00.966Z,94482.00
2023-04-22T03:05:00.887Z,94482.00
2023-04-22T03:06:00.858Z,94484.00
2023-04-22T03:07:00.965Z,94486.00
2023-04-22T03:08:00.967Z,94488.00
2023-04-22T03:09:01.060Z,94484.00
2023-04-22T03:10:01.098Z,94486.00
2023-04-22T03:11:01.149Z,94480.00
2023-04-22T03:12:01.183Z,94480.00
2023-04-22T03:13:01.238Z,94486.00
2023-04-22T03:14:01.348Z,94480.00
2023-04-22T03:15:01.341Z,94480.00
2023-04-22T03:16:01.434Z,94480.00
2023-04-22T03:17:01.588Z,94484.00
2023-04-22T03:18:01.485Z,94480.00
2023-04-22T03:19:01.524Z,94478.00
2023-04-22T03:20:01.571Z,94482.00
2023-04-22T03:21:01.589Z,94484.00
2023-04-22T03:22:01.615Z,94482.00
2023-04-22T03:23:01.724Z,94480.00
2023-04-22T03:24:01.769Z,94480.00
2023-04-22T03:25:01.801Z,94476.00
2023-04-22T03:26:01.828Z,94476.00
2023-04-22T03:27:01.858Z,94478.00
2023-04-22T03:28:01.996Z,94480.00
2023-04-22T03:29:01.974Z,94478.00
2023-04-22T03:30:02.053Z,94476.00
2023-04-22T03:31:02.063Z,94478.00
2023-04-22T03:32:02.219Z,94482.00
2023-04-22T03:33:02.205Z,94486.00
2023-04-22T03:34:02.238Z,94484.00
2023-04-22T03:35:02.299Z,94486.00
2023-04-22T03:36:02.296Z,94484.00
2023-04-22T03:37:02.364Z,94484.00
2023-04-22T03:38:02.382Z,94484.00
2023-04-22T03:39:02.464Z,94482.00
2023-04-22T03:40:02.574Z,94480.00
2023-04-22T03:41:02.538Z,94474.00
2023-04-22T03:42:02.582Z,94474.00
2023-04-22T03:43:02.631Z,94474.00
2023-04-22T03:44:02.710Z,94474.00
2023-04-22T03:45:02.725Z,94471.00
2023-04-22T03:46:02.862Z,94476.00
2023-04-22T03:47:02.815Z,94476.00
2023-04-22T03:48:02.894Z,94480.00
2023-04-22T03:49:02.946Z,94482.00
2023-04-22T03:50:02.942Z,94482.00
2023-04-22T03:51:03.030Z,94486.00
2023-04-22T03:52:51.971Z,94482.00
2023-04-22T03:53:52.254Z,94482.00
2023-04-22T03:54:52.431Z,94480.00
2023-04-22T03:55:52.672Z,94482.00
2023-04-22T03:56:52.819Z,94484.00
2023-04-22T03:57:53.010Z,94482.00
2023-04-22T03:58:53.221Z,94484.00
2023-04-22T03:59:53.417Z,94486.00
2023-04-22T04:00:53.596Z,94486.00
2023-04-22T04:01:53.794Z,94488.00
2023-04-22T04:02:54.059Z,94488.00
2023-04-22T04:03:54.395Z,94484.00
2023-04-22T04:04:54.380Z,94488.00
2023-04-22T04:05:54.341Z,94490.00
2023-04-22T04:06:54.270Z,94496.00
2023-04-22T04:07:54.320Z,94494.00
2023-04-22T04:08:54.366Z,94494.00
2023-04-22T04:09:54.373Z,94498.00
2023-04-22T04:10:54.409Z,94498.00
2023-04-22T04:11:54.519Z,94498.00
2023-04-22T04:12:54.537Z,94496.00
2023-04-22T04:13:54.608Z,94496.00
2023-04-22T04:14:54.732Z,94498.00
2023-04-22T04:15:54.687Z,94494.00
2023-04-22T04:16:54.710Z,94496.00
2023-04-22T04:17:54.837Z,94496.00
2023-04-22T04:18:54.763Z,94500.00
2023-04-22T04:19:54.917Z,94496.00
2023-04-22T04:20:55.102Z,94496.00
2023-04-22T04:21:55.249Z,94498.00
2023-04-22T04:22:55.433Z,94498.00
2023-04-22T04:23:55.738Z,94498.00
2023-04-22T04:24:55.827Z,94498.00
2023-04-22T04:25:55.952Z,94500.00
2023-04-22T04:26:56.094Z,94498.00
2023-04-22T04:27:56.199Z,94502.00
2023-04-22T04:28:56.414Z,94502.00
2023-04-22T04:29:56.555Z,94504.00
2023-04-22T04:30:56.778Z,94502.00
2023-04-22T04:31:56.911Z,94502.00
2023-04-22T04:32:57.146Z,94498.00
2023-04-22T04:33:57.326Z,94502.00
2023-04-22T04:34:57.429Z,94506.00
2023-04-22T04:35:57.616Z,94504.00
2023-04-22T04:36:57.762Z,94504.00
2023-04-22T04:37:57.945Z,94506.00
2023-04-22T04:38:58.065Z,94504.00
2023-04-22T04:39:58.350Z,94500.00
2023-04-22T04:40:58.266Z,94500.00
2023-04-22T04:41:58.388Z,94494.00
2023-04-22T04:42:58.338Z,94494.00
2023-04-22T04:43:58.254Z,94490.00
2023-04-22T04:44:58.316Z,94490.00
2023-04-22T04:45:58.319Z,94490.00
2023-04-22T04:46:58.403Z,94488.00
2023-04-22T04:47:58.484Z,94488.00
2023-04-22T04:48:58.356Z,94490.00
2023-04-22T04:49:58.378Z,94488.00
2023-04-22T04:50:58.414Z,94490.00
2023-04-22T04:51:58.435Z,94488.00
2023-04-22T04:52:58.447Z,94496.00
2023-04-22T04:53:58.581Z,94500.00
2023-04-22T04:54:58.414Z,94500.00
2023-04-22T04:55:58.489Z,94502.00
2023-04-22T04:56:58.461Z,94502.00
2023-04-22T04:57:58.441Z,94506.00
2023-04-22T04:58:58.455Z,94502.00
2023-04-22T04:59:58.454Z,94502.00
2023-04-22T05:00:58.477Z,94502.00
2023-04-22T05:01:58.479Z,94506.00
2023-04-22T05:02:58.615Z,94502.00
2023-04-22T05:03:58.587Z,94506.00
2023-04-22T05:04:58.545Z,94502.00
2023-04-22T05:05:58.509Z,94506.00
2023-04-22T05:06:58.619Z,94506.00
2023-04-22T05:07:58.660Z,94506.00
2023-04-22T05:08:58.692Z,94506.00
2023-04-22T05:09:58.703Z,94504.00
2023-04-22T05:10:58.750Z,94502.00
2023-04-22T05:11:58.725Z,94506.00
2023-04-22T05:12:58.755Z,94506.00
2023-04-22T05:13:58.768Z,94516.00
2023-04-22T05:14:58.770Z,94518.00
2023-04-22T05:15:58.857Z,94519.00
2023-04-22T05:16:58.845Z,94519.00
2023-04-22T05:17:58.873Z,94519.00
2023-04-22T05:18:58.901Z,94518.00
2023-04-22T05:19:58.916Z,94516.00
2023-04-22T05:20:58.951Z,94518.00
2023-04-22T05:21:58.978Z,94516.00
2023-04-22T05:22:59.007Z,94516.00
2023-04-22T05:23:59.047Z,94518.00
2023-04-22T05:24:59.045Z,94519.00
2023-04-22T05:25:59.114Z,94519.00
2023-04-22T05:26:59.109Z,94518.00
2023-04-22T05:27:59.133Z,94519.00
2023-04-22T05:28:59.242Z,94516.00
2023-04-22T05:29:59.208Z,94514.00
2023-04-22T05:30:59.280Z,94516.00
2023-04-22T05:31:59.321Z,94514.00
2023-04-22T05:32:59.478Z,94516.00
2023-04-22T05:33:59.388Z,94514.00
2023-04-22T05:34:59.380Z,94514.00
2023-04-22T05:35:59.444Z,94512.00
2023-04-22T05:36:59.465Z,94512.00
2023-04-22T05:37:59.565Z,94514.00
2023-04-22T05:38:59.580Z,94512.00
2023-04-22T05:39:59.558Z,94508.00
2023-04-22T05:40:59.618Z,94504.00
2023-04-22T05:41:59.641Z,94502.00
2023-04-22T05:42:59.806Z,94502.00
2023-04-22T05:43:59.725Z,94496.00
2023-04-22T05:44:59.749Z,94498.00
2023-04-22T05:45:59.795Z,94496.00
2023-04-22T05:46:59.815Z,94492.00
2023-04-22T05:47:59.939Z,94496.00
2023-04-22T05:48:59.881Z,94492.00
2023-04-22T05:49:59.901Z,94490.00
2023-04-22T05:50:59.942Z,94494.00
2023-04-22T05:51:59.990Z,94496.00
2023-04-22T05:53:00.024Z,94494.00
2023-04-22T05:54:00.026Z,94494.00
2023-04-22T05:55:00.055Z,94494.00
2023-04-22T05:56:00.097Z,94496.00
2023-04-22T05:57:00.119Z,94502.00
2023-04-22T05:58:00.186Z,94500.00
2023-04-22T05:59:00.198Z,94502.00
2023-04-22T06:00:00.262Z,94502.00
2023-04-22T06:01:00.273Z,94504.00
2023-04-22T06:02:00.343Z,94502.00
2023-04-22T06:03:00.582Z,94502.00
2023-04-22T06:04:00.625Z,94502.00
2023-04-22T06:05:00.661Z,94502.00
2023-04-22T06:06:00.504Z,94498.00
2023-04-22T06:07:00.461Z,94502.00
2023-04-22T06:08:00.498Z,94506.00
2023-04-22T06:09:00.528Z,94502.00
2023-04-22T06:10:05.090Z,94506.00
2023-04-22T06:11:00.543Z,94506.00
2023-04-22T06:12:00.569Z,94508.00
2023-04-22T06:13:00.546Z,94506.00
2023-04-22T06:14:00.513Z,94504.00
2023-04-22T06:15:00.523Z,94502.00
2023-04-22T06:16:00.569Z,94504.00
2023-04-22T06:17:00.526Z,94502.00
2023-04-22T06:18:00.516Z,94506.00
2023-04-22T06:19:00.620Z,94504.00
2023-04-22T06:20:00.504Z,94506.00
2023-04-22T06:21:00.523Z,94508.00
2023-04-22T06:22:00.514Z,94502.00
2023-04-22T06:23:00.466Z,94502.00
2023-04-22T06:24:00.467Z,94504.00
2023-04-22T06:25:00.749Z,94506.00
2023-04-22T06:26:00.545Z,94506.00
2023-04-22T06:27:00.571Z,94506.00
2023-04-22T06:28:00.621Z,94506.00
2023-04-22T06:29:00.663Z,94504.00
2023-04-22T06:30:00.619Z,94504.00
2023-04-22T06:31:00.719Z,94508.00
2023-04-22T06:32:00.734Z,94506.00
2023-04-22T06:33:00.761Z,94506.00
2023-04-22T06:34:00.819Z,94506.00
2023-04-22T06:35:00.800Z,94506.00
2023-04-22T06:36:00.835Z,94508.00
2023-04-22T06:37:00.916Z,94508.00
2023-04-22T06:38:00.926Z,94506.00
2023-04-22T06:39:00.943Z,94506.00
2023-04-22T06:40:01.004Z,94508.00
2023-04-22T06:41:00.994Z,94506.00
2023-04-22T06:42:01.072Z,94508.00
2023-04-22T06:43:01.125Z,94508.00
2023-04-22T06:44:01.147Z,94508.00
2023-04-22T06:45:01.122Z,94504.00
2023-04-22T06:46:01.200Z,94504.00
2023-04-22T06:47:01.226Z,94506.00
2023-04-22T06:48:01.294Z,94506.00
2023-04-22T06:49:01.227Z,94506.00
2023-04-22T06:50:01.281Z,94506.00
2023-04-22T06:51:01.319Z,94506.00
2023-04-22T06:52:01.317Z,94510.00
2023-04-22T06:53:01.382Z,94510.00
2023-04-22T06:54:01.440Z,94508.00
2023-04-22T06:55:01.512Z,94510.00
2023-04-22T06:56:01.457Z,94510.00
2023-04-22T06:57:01.531Z,94510.00
2023-04-22T06:58:01.528Z,94510.00
2023-04-22T06:59:01.632Z,94514.00
2023-04-22T07:00:01.643Z,94512.00
2023-04-22T07:01:01.646Z,94510.00
2023-04-22T07:02:01.691Z,94512.00
2023-04-22T07:03:01.775Z,94508.00
2023-04-22T07:04:01.769Z,94510.00
2023-04-22T07:05:01.777Z,94510.00
2023-04-22T07:06:01.781Z,94510.00
2023-04-22T07:07:01.862Z,94508.00
2023-04-22T07:08:01.846Z,94510.00
2023-04-22T07:09:01.900Z,94508.00
2023-04-22T07:10:01.893Z,94508.00
2023-04-22T07:11:01.976Z,94506.00
2023-04-22T07:12:01.986Z,94504.00
2023-04-22T07:13:02.032Z,94502.00
2023-04-22T07:14:02.048Z,94500.00
2023-04-22T07:15:02.032Z,94500.00
2023-04-22T07:16:02.120Z,94500.00
2023-04-22T07:17:02.222Z,94500.00
2023-04-22T07:18:02.168Z,94502.00
2023-04-22T07:19:02.227Z,94500.00
2023-04-22T07:20:02.235Z,94498.00
2023-04-22T07:21:02.280Z,94498.00
2023-04-22T07:22:02.347Z,94496.00
2023-04-22T07:23:02.368Z,94498.00
2023-04-22T07:24:02.381Z,94496.00
2023-04-22T07:25:02.422Z,94496.00
2023-04-22T07:26:02.487Z,94496.00
2023-04-22T07:27:02.491Z,94492.00
2023-04-22T07:28:02.502Z,94496.00
2023-04-22T07:29:02.647Z,94492.00
2023-04-22T07:30:02.564Z,94490.00
2023-04-22T07:31:02.723Z,94486.00
2023-04-22T07:32:02.775Z,94486.00
2023-04-22T07:33:02.713Z,94490.00
2023-04-22T07:34:02.686Z,94486.00
2023-04-22T07:35:02.703Z,94482.00
2023-04-22T07:36:02.755Z,94486.00
2023-04-22T07:37:02.892Z,94484.00
2023-04-22T07:38:02.790Z,94482.00
2023-04-22T07:39:02.819Z,94480.00
2023-04-22T07:40:02.885Z,94482.00
2023-04-22T07:41:02.893Z,94480.00
2023-04-22T07:42:02.899Z,94478.00
2023-04-22T07:43:02.966Z,94478.00
2023-04-22T07:44:02.958Z,94476.00
2023-04-22T07:45:03.029Z,94476.00
2023-04-22T07:46:03.061Z,94476.00
2023-04-22T07:47:03.036Z,94474.00
2023-04-22T07:48:03.116Z,94471.00
2023-04-22T07:49:03.214Z,94472.00
2023-04-22T07:50:03.110Z,94469.00
2023-04-22T07:51:03.190Z,94471.00
2023-04-22T07:52:03.174Z,94472.00
2023-04-22T07:53:03.239Z,94472.00
2023-04-22T07:54:03.394Z,94472.00
2023-04-22T07:55:03.284Z,94472.00
2023-04-22T07:56:03.313Z,94469.00
2023-04-22T07:57:03.354Z,94469.00
2023-04-22T07:58:03.526Z,94472.00
2023-04-22T07:59:03.422Z,94469.00
2023-04-22T08:00:03.428Z,94472.00
2023-04-22T08:01:03.503Z,94471.00
2023-04-22T08:02:03.513Z,94471.00
2023-04-22T08:03:03.609Z,94471.00
2023-04-22T08:04:03.956Z,94471.00
2023-04-22T08:05:03.556Z,94471.00
2023-04-22T08:06:03.573Z,94467.00
2023-04-22T08:07:12.819Z,94463.00
2023-04-22T08:08:04.665Z,94459.00
2023-04-22T08:09:03.596Z,94459.00
2023-04-22T08:10:03.558Z,94457.00
2023-04-22T08:11:03.563Z,94461.00
2023-04-22T08:12:03.561Z,94459.00
2023-04-22T08:13:03.581Z,94461.00
2023-04-22T08:14:03.585Z,94461.00
2023-04-22T08:15:03.571Z,94457.00
2023-04-22T08:16:03.669Z,94455.00
2023-04-22T08:17:03.555Z,94455.00
2023-04-22T08:18:03.628Z,94451.00
2023-04-22T08:19:03.512Z,94453.00
2023-04-22T08:20:04.740Z,94453.00
2023-04-22T08:21:03.519Z,94451.00
2023-04-22T08:22:03.512Z,94449.00
2023-04-22T08:23:03.486Z,94451.00
2023-04-22T08:24:03.618Z,94449.00
2023-04-22T08:25:03.501Z,94449.00
2023-04-22T08:26:03.458Z,94445.00
2023-04-22T08:27:03.580Z,94445.00
2023-04-22T08:28:03.483Z,94445.00
2023-04-22T08:29:03.491Z,94445.00
2023-04-22T08:30:03.448Z,94445.00
2023-04-22T08:31:03.487Z,94443.00
2023-04-22T08:32:03.459Z,94445.00
2023-04-22T08:33:03.444Z,94443.00
2023-04-22T08:34:03.474Z,94445.00
2023-04-22T08:35:05.531Z,94445.00
2023-04-22T08:36:03.477Z,94445.00
2023-04-22T08:37:03.432Z,94441.00
2023-04-22T08:38:03.387Z,94443.00
2023-04-22T08:39:03.405Z,94435.00
2023-04-22T08:40:03.443Z,94435.00
2023-04-22T08:41:03.446Z,94433.00
2023-04-22T08:42:03.469Z,94431.00
2023-04-22T08:43:03.525Z,94429.00
2023-04-22T08:44:03.526Z,94425.00
2023-04-22T08:45:03.611Z,94424.00
2023-04-22T08:46:03.624Z,94424.00
2023-04-22T08:47:03.807Z,94422.00
2023-04-22T08:48:03.889Z,94420.00
2023-04-22T08:49:03.691Z,94422.00
2023-04-22T08:50:03.724Z,94420.00
2023-04-22T08:51:03.745Z,94420.00
2023-04-22T08:52:03.811Z,94418.00
2023-04-22T08:53:03.798Z,94418.00
2023-04-22T08:54:03.813Z,94420.00
2023-04-22T08:55:03.868Z,94418.00
2023-04-22T08:56:03.916Z,94418.00
2023-04-22T08:57:03.927Z,94416.00
2023-04-22T08:58:03.941Z,94414.00
2023-04-22T08:59:04.005Z,94414.00
2023-04-22T09:00:04.008Z,94412.00
2023-04-22T09:01:04.032Z,94410.00
2023-04-22T09:02:04.255Z,94408.00
2023-04-22T09:03:04.100Z,94408.00
2023-04-22T09:04:04.239Z,94406.00
2023-04-22T09:05:04.120Z,94404.00
2023-04-22T09:06:04.197Z,94400.00
2023-04-22T09:07:04.213Z,94404.00
2023-04-22T09:08:04.249Z,94398.00
2023-04-22T09:09:04.275Z,94394.00
2023-04-22T09:10:04.274Z,94392.00
2023-04-22T09:11:04.289Z,94392.00
2023-04-22T09:12:04.335Z,94390.00
2023-04-22T09:13:04.313Z,94390.00
2023-04-22T09:14:04.347Z,94390.00
2023-04-22T09:15:04.415Z,94386.00
2023-04-22T09:16:04.443Z,94384.00
2023-04-22T09:17:04.500Z,94382.00
2023-04-22T09:18:04.534Z,94382.00
2023-04-22T09:19:04.450Z,94382.00
2023-04-22T09:20:04.650Z,94380.00
2023-04-22T09:21:04.532Z,94378.00
2023-04-22T09:22:04.604Z,94371.00
2023-04-22T09:23:04.563Z,94378.00
2023-04-22T09:24:04.625Z,94369.00
2023-04-22T09:25:04.637Z,94367.00
2023-04-22T09:26:04.668Z,94369.00
2023-04-22T09:27:04.749Z,94367.00
2023-04-22T09:28:04.762Z,94365.00
2023-04-22T09:29:04.769Z,94359.00
2023-04-22T09:30:04.823Z,94361.00
2023-04-22T09:31:04.799Z,94361.00
2023-04-22T09:32:04.903Z,94359.00
2023-04-22T09:33:04.952Z,94357.00
2023-04-22T09:34:04.889Z,94359.00
2023-04-22T09:35:04.990Z,94353.00
2023-04-22T09:36:04.969Z,94353.00
2023-04-22T09:37:05.027Z,94351.00
2023-04-22T09:38:04.986Z,94349.00
2023-04-22T09:39:05.150Z,94345.00
2023-04-22T09:40:05.045Z,94345.00
2023-04-22T09:41:05.099Z,94343.00
2023-04-22T09:42:05.092Z,94343.00
2023-04-22T09:43:05.150Z,94339.00
2023-04-22T09:44:05.224Z,94333.00
2023-04-22T09:45:05.201Z,94337.00
2023-04-22T09:46:05.200Z,94333.00
2023-04-22T09:47:05.202Z,94332.00
2023-04-22T09:48:05.228Z,94328.00
2023-04-22T09:49:05.264Z,94330.00
2023-04-22T09:50:05.265Z,94328.00
2023-04-22T09:51:05.341Z,94330.00
2023-04-22T09:52:05.345Z,94326.00
2023-04-22T09:53:05.338Z,94326.00
2023-04-22T09:54:05.401Z,94322.00
2023-04-22T09:55:05.341Z,94322.00
2023-04-22T09:56:05.391Z,94320.00
2023-04-22T09:57:06.745Z,94322.00
2023-04-22T09:58:05.491Z,94318.00
2023-04-22T09:59:05.490Z,94318.00
2023-04-22T10:00:05.479Z,94314.00
2023-04-22T10:01:05.503Z,94320.00
2023-04-22T10:02:05.585Z,94318.00
2023-04-22T10:03:07.323Z,94316.00
2023-04-22T10:04:05.691Z,94314.00
2023-04-22T10:05:05.690Z,94308.00
2023-04-22T10:06:05.709Z,94308.00
2023-04-22T10:07:05.767Z,94306.00
2023-04-22T10:08:05.778Z,94302.00
2023-04-22T10:09:07.508Z,94300.00
2023-04-22T10:10:05.782Z,94298.00
2023-04-22T10:11:05.775Z,94300.00
2023-04-22T10:12:05.718Z,94298.00
2023-04-22T10:13:05.782Z,94296.00
2023-04-22T10:14:05.712Z,94296.00
2023-04-22T10:15:05.731Z,94294.00
2023-04-22T10:16:05.718Z,94292.00
2023-04-22T10:17:05.772Z,94290.00
2023-04-22T10:18:05.746Z,94290.00
2023-04-22T10:19:05.722Z,94288.00
2023-04-22T10:20:05.656Z,94284.00
2023-04-22T10:21:05.648Z,94284.00
2023-04-22T10:22:05.674Z,94284.00
2023-04-22T10:23:05.646Z,94280.00
2023-04-22T10:24:05.647Z,94282.00
2023-04-22T10:25:05.669Z,94282.00
2023-04-22T10:26:05.670Z,94278.00
2023-04-22T10:27:05.610Z,94280.00
2023-04-22T10:28:05.613Z,94278.00
2023-04-22T10:29:05.632Z,94277.00
2023-04-22T10:30:05.631Z,94275.00
2023-04-22T10:31:05.621Z,94275.00
2023-04-22T10:32:05.656Z,94275.00
2023-04-22T10:33:05.623Z,94273.00
2023-04-22T10:34:05.627Z,94269.00
2023-04-22T10:35:05.590Z,94269.00
2023-04-22T10:36:05.560Z,94271.00
2023-04-22T10:37:05.568Z,94267.00
2023-04-22T10:38:05.551Z,94263.00
2023-04-22T10:39:05.537Z,94263.00
2023-04-22T10:40:05.542Z,94261.00
2023-04-22T10:41:05.511Z,94259.00
2023-04-22T10:42:05.502Z,94257.00
2023-04-22T10:43:05.499Z,94257.00
2023-04-22T10:44:05.489Z,94255.00
2023-04-22T10:45:05.539Z,94251.00
2023-04-22T10:46:05.515Z,94251.00
2023-04-22T10:47:05.493Z,94251.00
2023-04-22T10:48:05.530Z,94249.00
2023-04-22T10:49:06.623Z,94247.00
2023-04-22T10:50:05.914Z,94243.00
2023-04-22T10:51:05.450Z,94241.00
2023-04-22T10:52:05.474Z,94237.00
2023-04-22T10:53:05.477Z,94239.00
2023-04-22T10:54:05.435Z,94233.00
2023-04-22T10:55:05.436Z,94230.00
2023-04-22T10:56:05.457Z,94230.00
2023-04-22T10:57:05.395Z,94228.00
2023-04-22T10:58:05.422Z,94226.00
2023-04-22T10:59:05.490Z,94224.00
2023-04-22T11:00:05.414Z,94222.00
2023-04-22T11:01:05.447Z,94220.00
2023-04-22T11:02:05.554Z,94218.00
2023-04-22T11:03:05.589Z,94218.00
2023-04-22T11:04:05.557Z,94218.00
2023-04-22T11:05:05.431Z,94216.00
2023-04-22T11:06:05.351Z,94218.00
2023-04-22T11:07:05.361Z,94216.00
2023-04-22T11:08:05.369Z,94218.00
2023-04-22T11:09:05.450Z,94216.00
2023-04-22T11:10:05.394Z,94214.00
2023-04-22T11:11:05.355Z,94216.00
2023-04-22T11:12:05.309Z,94214.00
2023-04-22T11:13:05.362Z,94210.00
2023-04-22T11:14:05.315Z,94210.00
2023-04-22T11:15:05.382Z,94210.00
2023-04-22T11:16:05.341Z,94210.00
2023-04-22T11:17:05.349Z,94210.00
2023-04-22T11:18:05.301Z,94210.00
2023-04-22T11:19:05.314Z,94206.00
2023-04-22T11:20:05.324Z,94206.00
2023-04-22T11:21:05.341Z,94204.00
2023-04-22T11:22:05.257Z,94206.00
2023-04-22T11:23:05.266Z,94202.00
2023-04-22T11:24:05.282Z,94204.00
2023-04-22T11:25:05.361Z,94202.00
2023-04-22T11:26:05.292Z,94200.00
2023-04-22T11:27:05.261Z,94200.00
2023-04-22T11:28:05.260Z,94200.00
2023-04-22T11:29:05.264Z,94196.00
2023-04-22T11:30:05.268Z,94194.00
2023-04-22T11:31:05.284Z,94192.00
2023-04-22T11:32:05.222Z,94196.00
2023-04-22T11:33:05.209Z,94190.00
2023-04-22T11:34:05.212Z,94194.00
2023-04-22T11:35:05.210Z,94192.00
2023-04-22T11:36:05.305Z,94192.00
2023-04-22T11:37:05.216Z,94190.00
2023-04-22T11:38:05.194Z,94190.00
2023-04-22T11:39:05.172Z,94190.00
2023-04-22T11:41:05.150Z,94192.00
2023-04-22T11:42:05.186Z,94190.00
2023-04-22T11:43:05.163Z,94190.00
2023-04-22T11:44:05.162Z,94186.00
2023-04-22T11:45:05.226Z,94184.00
2023-04-22T11:46:05.184Z,94182.00
2023-04-22T11:47:05.122Z,94184.00